sensor_id;sensor_type;location;lat;lon;timestamp;P1;durP1;ratioP1;P2;durP2;ratioP2
38312;SDS011;24114;52.260;6.714;2023-12-28T00:01:09;1.97;;;0.90;;
38312;SDS011;24114;52.260;6.714;2023-12-28T00:03:37;3.08;;;1.08;;
38312;SDS011;24114;52.260;6.714;2023-12-28T00:06:07;3.00;;;1.08;;
38312;SDS011;24114;52.260;6.714;2023-12-28T00:08:36;1.90;;;1.20;;
38312;SDS011;24114;52.260;6.714;2023-12-28T00:11:04;2.10;;;1.10;;
38312;SDS011;24114;52.260;6.714;2023-12-28T00:13:33;2.65;;;1.73;;
38312;SDS011;24114;52.260;6.714;2023-12-28T00:16:01;2.00;;;1.48;;
38312;SDS011;24114;52.260;6.714;2023-12-28T00:18:29;6.30;;;1.20;;
38312;SDS011;24114;52.260;6.714;2023-12-28T00:20:57;2.67;;;1.60;;
38312;SDS011;24114;52.260;6.714;2023-12-28T00:23:24;3.05;;;1.55;;
38312;SDS011;24114;52.260;6.714;2023-12-28T00:25:52;2.83;;;1.52;;
38312;SDS011;24114;52.260;6.714;2023-12-28T00:28:20;4.15;;;1.85;;
38312;SDS011;24114;52.260;6.714;2023-12-28T00:30:49;2.22;;;0.90;;
38312;SDS011;24114;52.260;6.714;2023-12-28T00:33:17;2.67;;;1.10;;
38312;SDS011;24114;52.260;6.714;2023-12-28T00:35:45;2.17;;;1.23;;
38312;SDS011;24114;52.260;6.714;2023-12-28T00:38:12;2.92;;;1.60;;
38312;SDS011;24114;52.260;6.714;2023-12-28T00:40:40;1.98;;;1.15;;
38312;SDS011;24114;52.260;6.714;2023-12-28T00:43:08;2.33;;;1.10;;
38312;SDS011;24114;52.260;6.714;2023-12-28T00:45:36;2.78;;;1.27;;
38312;SDS011;24114;52.260;6.714;2023-12-28T00:48:05;2.53;;;1.33;;
38312;SDS011;24114;52.260;6.714;2023-12-28T00:50:34;1.80;;;1.17;;
38312;SDS011;24114;52.260;6.714;2023-12-28T00:53:02;2.15;;;1.27;;
38312;SDS011;24114;52.260;6.714;2023-12-28T00:55:29;2.90;;;1.33;;
38312;SDS011;24114;52.260;6.714;2023-12-28T00:57:56;1.80;;;0.93;;
38312;SDS011;24114;52.260;6.714;2023-12-28T01:00:25;2.00;;;1.30;;
38312;SDS011;24114;52.260;6.714;2023-12-28T01:02:52;2.10;;;1.15;;
38312;SDS011;24114;52.260;6.714;2023-12-28T01:05:22;3.35;;;2.83;;
38312;SDS011;24114;52.260;6.714;2023-12-28T01:07:52;2.33;;;2.03;;
38312;SDS011;24114;52.260;6.714;2023-12-28T01:10:20;2.03;;;1.40;;
38312;SDS011;24114;52.260;6.714;2023-12-28T01:12:48;1.77;;;1.47;;
38312;SDS011;24114;52.260;6.714;2023-12-28T01:15:16;2.67;;;1.77;;
38312;SDS011;24114;52.260;6.714;2023-12-28T01:17:46;2.75;;;1.70;;
38312;SDS011;24114;52.260;6.714;2023-12-28T01:20:14;2.75;;;1.40;;
38312;SDS011;24114;52.260;6.714;2023-12-28T01:22:44;3.25;;;1.95;;
38312;SDS011;24114;52.260;6.714;2023-12-28T01:25:12;3.27;;;2.17;;
38312;SDS011;24114;52.260;6.714;2023-12-28T01:27:40;1.73;;;1.23;;
38312;SDS011;24114;52.260;6.714;2023-12-28T01:30:08;2.47;;;1.30;;
38312;SDS011;24114;52.260;6.714;2023-12-28T01:32:36;3.10;;;1.55;;
38312;SDS011;24114;52.260;6.714;2023-12-28T01:35:05;2.67;;;1.45;;
38312;SDS011;24114;52.260;6.714;2023-12-28T01:37:33;2.10;;;1.30;;
38312;SDS011;24114;52.260;6.714;2023-12-28T01:40:03;3.40;;;1.88;;
38312;SDS011;24114;52.260;6.714;2023-12-28T01:42:31;3.45;;;1.35;;
38312;SDS011;24114;52.260;6.714;2023-12-28T01:44:59;2.05;;;1.50;;
38312;SDS011;24114;52.260;6.714;2023-12-28T01:47:27;2.88;;;1.65;;
38312;SDS011;24114;52.260;6.714;2023-12-28T01:49:56;2.35;;;1.67;;
38312;SDS011;24114;52.260;6.714;2023-12-28T01:52:24;2.22;;;1.38;;
38312;SDS011;24114;52.260;6.714;2023-12-28T01:54:52;2.35;;;1.55;;
38312;SDS011;24114;52.260;6.714;2023-12-28T01:57:21;4.38;;;2.63;;
38312;SDS011;24114;52.260;6.714;2023-12-28T01:59:49;1.90;;;1.30;;
38312;SDS011;24114;52.260;6.714;2023-12-28T02:02:17;2.95;;;1.40;;
38312;SDS011;24114;52.260;6.714;2023-12-28T02:04:45;3.53;;;1.63;;
38312;SDS011;24114;52.260;6.714;2023-12-28T02:07:13;2.70;;;1.58;;
38312;SDS011;24114;52.260;6.714;2023-12-28T02:09:41;3.25;;;2.13;;
38312;SDS011;24114;52.260;6.714;2023-12-28T02:12:09;4.47;;;2.30;;
38312;SDS011;24114;52.260;6.714;2023-12-28T02:14:39;3.33;;;1.80;;
38312;SDS011;24114;52.260;6.714;2023-12-28T02:17:09;2.28;;;1.45;;
38312;SDS011;24114;52.260;6.714;2023-12-28T02:19:40;2.03;;;1.43;;
38312;SDS011;24114;52.260;6.714;2023-12-28T02:22:10;2.42;;;1.60;;
38312;SDS011;24114;52.260;6.714;2023-12-28T02:25:00;3.40;;;1.98;;
38312;SDS011;24114;52.260;6.714;2023-12-28T02:27:31;2.45;;;1.63;;
38312;SDS011;24114;52.260;6.714;2023-12-28T02:29:59;2.60;;;1.50;;
38312;SDS011;24114;52.260;6.714;2023-12-28T02:32:44;3.13;;;1.58;;
38312;SDS011;24114;52.260;6.714;2023-12-28T02:35:22;2.10;;;1.50;;
38312;SDS011;24114;52.260;6.714;2023-12-28T02:37:51;2.53;;;1.70;;
38312;SDS011;24114;52.260;6.714;2023-12-28T02:40:24;2.27;;;1.43;;
38312;SDS011;24114;52.260;6.714;2023-12-28T02:42:52;2.95;;;1.77;;
38312;SDS011;24114;52.260;6.714;2023-12-28T02:45:20;3.42;;;1.40;;
38312;SDS011;24114;52.260;6.714;2023-12-28T02:47:48;2.40;;;1.60;;
38312;SDS011;24114;52.260;6.714;2023-12-28T02:50:16;3.28;;;1.73;;
38312;SDS011;24114;52.260;6.714;2023-12-28T02:52:44;2.17;;;1.58;;
38312;SDS011;24114;52.260;6.714;2023-12-28T02:55:11;3.63;;;1.90;;
38312;SDS011;24114;52.260;6.714;2023-12-28T02:57:43;2.53;;;1.77;;
38312;SDS011;24114;52.260;6.714;2023-12-28T03:00:11;3.40;;;2.28;;
38312;SDS011;24114;52.260;6.714;2023-12-28T03:02:40;2.85;;;1.95;;
38312;SDS011;24114;52.260;6.714;2023-12-28T03:05:08;3.20;;;1.90;;
38312;SDS011;24114;52.260;6.714;2023-12-28T03:07:36;3.03;;;1.80;;
38312;SDS011;24114;52.260;6.714;2023-12-28T03:10:05;3.35;;;1.88;;
38312;SDS011;24114;52.260;6.714;2023-12-28T03:12:37;2.95;;;2.05;;
38312;SDS011;24114;52.260;6.714;2023-12-28T03:15:06;3.03;;;1.73;;
38312;SDS011;24114;52.260;6.714;2023-12-28T03:17:35;3.63;;;1.80;;
38312;SDS011;24114;52.260;6.714;2023-12-28T03:20:04;3.00;;;1.70;;
38312;SDS011;24114;52.260;6.714;2023-12-28T03:22:33;2.60;;;1.67;;
38312;SDS011;24114;52.260;6.714;2023-12-28T03:25:01;2.70;;;1.60;;
38312;SDS011;24114;52.260;6.714;2023-12-28T03:27:29;3.83;;;1.73;;
38312;SDS011;24114;52.260;6.714;2023-12-28T03:29:57;2.88;;;1.80;;
38312;SDS011;24114;52.260;6.714;2023-12-28T03:32:27;3.38;;;1.70;;
38312;SDS011;24114;52.260;6.714;2023-12-28T03:34:55;3.13;;;1.75;;
38312;SDS011;24114;52.260;6.714;2023-12-28T03:37:22;3.43;;;1.83;;
38312;SDS011;24114;52.260;6.714;2023-12-28T03:39:50;3.45;;;1.70;;
38312;SDS011;24114;52.260;6.714;2023-12-28T03:42:18;2.25;;;1.48;;
38312;SDS011;24114;52.260;6.714;2023-12-28T03:44:48;2.00;;;1.80;;
38312;SDS011;24114;52.260;6.714;2023-12-28T03:47:15;2.40;;;1.70;;
38312;SDS011;24114;52.260;6.714;2023-12-28T03:49:45;3.77;;;1.97;;
38312;SDS011;24114;52.260;6.714;2023-12-28T03:52:12;3.65;;;1.90;;
38312;SDS011;24114;52.260;6.714;2023-12-28T03:54:40;3.30;;;1.80;;
38312;SDS011;24114;52.260;6.714;2023-12-28T03:57:08;3.80;;;1.77;;
38312;SDS011;24114;52.260;6.714;2023-12-28T03:59:36;3.97;;;1.70;;
38312;SDS011;24114;52.260;6.714;2023-12-28T04:02:04;4.03;;;1.80;;
38312;SDS011;24114;52.260;6.714;2023-12-28T04:04:32;3.45;;;1.90;;
38312;SDS011;24114;52.260;6.714;2023-12-28T04:07:01;3.38;;;1.83;;
38312;SDS011;24114;52.260;6.714;2023-12-28T04:09:29;3.05;;;1.88;;
38312;SDS011;24114;52.260;6.714;2023-12-28T04:11:57;3.72;;;1.50;;
38312;SDS011;24114;52.260;6.714;2023-12-28T04:14:24;2.20;;;1.50;;
38312;SDS011;24114;52.260;6.714;2023-12-28T04:16:52;3.47;;;1.73;;
38312;SDS011;24114;52.260;6.714;2023-12-28T04:19:20;2.65;;;1.63;;
38312;SDS011;24114;52.260;6.714;2023-12-28T04:21:48;3.30;;;1.65;;
38312;SDS011;24114;52.260;6.714;2023-12-28T04:24:17;5.30;;;1.80;;
38312;SDS011;24114;52.260;6.714;2023-12-28T04:26:45;3.87;;;1.70;;
38312;SDS011;24114;52.260;6.714;2023-12-28T04:29:13;3.38;;;1.80;;
38312;SDS011;24114;52.260;6.714;2023-12-28T04:31:41;2.75;;;1.67;;
38312;SDS011;24114;52.260;6.714;2023-12-28T04:34:09;4.35;;;2.08;;
38312;SDS011;24114;52.260;6.714;2023-12-28T04:36:39;4.35;;;1.75;;
38312;SDS011;24114;52.260;6.714;2023-12-28T04:39:08;3.90;;;1.98;;
38312;SDS011;24114;52.260;6.714;2023-12-28T04:41:37;2.80;;;1.70;;
38312;SDS011;24114;52.260;6.714;2023-12-28T04:44:05;3.78;;;1.85;;
38312;SDS011;24114;52.260;6.714;2023-12-28T04:46:32;2.77;;;1.50;;
38312;SDS011;24114;52.260;6.714;2023-12-28T04:49:06;3.83;;;1.80;;
38312;SDS011;24114;52.260;6.714;2023-12-28T04:51:34;3.15;;;2.15;;
38312;SDS011;24114;52.260;6.714;2023-12-28T04:54:02;5.03;;;2.05;;
38312;SDS011;24114;52.260;6.714;2023-12-28T04:56:30;2.80;;;1.60;;
38312;SDS011;24114;52.260;6.714;2023-12-28T04:58:59;4.05;;;1.65;;
38312;SDS011;24114;52.260;6.714;2023-12-28T05:01:27;3.47;;;1.80;;
38312;SDS011;24114;52.260;6.714;2023-12-28T05:03:58;2.87;;;1.90;;
38312;SDS011;24114;52.260;6.714;2023-12-28T05:06:27;4.18;;;1.98;;
38312;SDS011;24114;52.260;6.714;2023-12-28T05:08:55;3.50;;;1.90;;
38312;SDS011;24114;52.260;6.714;2023-12-28T05:11:23;2.97;;;1.88;;
38312;SDS011;24114;52.260;6.714;2023-12-28T05:13:50;3.22;;;1.80;;
38312;SDS011;24114;52.260;6.714;2023-12-28T05:16:19;3.92;;;1.75;;
38312;SDS011;24114;52.260;6.714;2023-12-28T05:18:47;4.82;;;2.08;;
38312;SDS011;24114;52.260;6.714;2023-12-28T05:21:15;4.28;;;1.58;;
38312;SDS011;24114;52.260;6.714;2023-12-28T05:23:43;3.43;;;2.00;;
38312;SDS011;24114;52.260;6.714;2023-12-28T05:26:11;4.18;;;1.80;;
38312;SDS011;24114;52.260;6.714;2023-12-28T05:28:39;2.80;;;1.50;;
38312;SDS011;24114;52.260;6.714;2023-12-28T05:31:07;3.97;;;1.57;;
38312;SDS011;24114;52.260;6.714;2023-12-28T05:33:36;3.85;;;1.50;;
38312;SDS011;24114;52.260;6.714;2023-12-28T05:36:04;3.20;;;1.67;;
38312;SDS011;24114;52.260;6.714;2023-12-28T05:38:35;4.18;;;1.63;;
38312;SDS011;24114;52.260;6.714;2023-12-28T05:41:03;3.58;;;1.63;;
38312;SDS011;24114;52.260;6.714;2023-12-28T05:43:31;3.13;;;1.50;;
38312;SDS011;24114;52.260;6.714;2023-12-28T05:45:59;3.75;;;1.75;;
38312;SDS011;24114;52.260;6.714;2023-12-28T05:48:27;4.68;;;1.60;;
38312;SDS011;24114;52.260;6.714;2023-12-28T05:50:58;4.55;;;2.05;;
38312;SDS011;24114;52.260;6.714;2023-12-28T05:53:25;2.93;;;1.20;;
38312;SDS011;24114;52.260;6.714;2023-12-28T05:55:54;2.83;;;1.27;;
38312;SDS011;24114;52.260;6.714;2023-12-28T05:58:21;4.05;;;1.60;;
38312;SDS011;24114;52.260;6.714;2023-12-28T06:00:49;2.88;;;1.20;;
38312;SDS011;24114;52.260;6.714;2023-12-28T06:03:17;6.27;;;1.63;;
38312;SDS011;24114;52.260;6.714;2023-12-28T06:05:45;4.10;;;1.40;;
38312;SDS011;24114;52.260;6.714;2023-12-28T06:08:14;4.35;;;1.35;;
38312;SDS011;24114;52.260;6.714;2023-12-28T06:10:42;4.55;;;1.58;;
38312;SDS011;24114;52.260;6.714;2023-12-28T06:13:10;3.42;;;1.15;;
38312;SDS011;24114;52.260;6.714;2023-12-28T06:15:37;5.38;;;1.10;;
38312;SDS011;24114;52.260;6.714;2023-12-28T06:18:05;3.13;;;1.27;;
38312;SDS011;24114;52.260;6.714;2023-12-28T06:20:33;4.10;;;1.20;;
38312;SDS011;24114;52.260;6.714;2023-12-28T06:23:02;3.88;;;1.20;;
38312;SDS011;24114;52.260;6.714;2023-12-28T06:25:32;4.18;;;1.50;;
38312;SDS011;24114;52.260;6.714;2023-12-28T06:27:59;4.18;;;1.42;;
38312;SDS011;24114;52.260;6.714;2023-12-28T06:30:28;3.25;;;1.10;;
38312;SDS011;24114;52.260;6.714;2023-12-28T06:32:55;5.07;;;1.20;;
38312;SDS011;24114;52.260;6.714;2023-12-28T06:35:23;4.68;;;1.70;;
38312;SDS011;24114;52.260;6.714;2023-12-28T06:37:51;4.03;;;0.98;;
38312;SDS011;24114;52.260;6.714;2023-12-28T06:40:19;4.93;;;1.20;;
38312;SDS011;24114;52.260;6.714;2023-12-28T06:42:48;5.40;;;1.10;;
38312;SDS011;24114;52.260;6.714;2023-12-28T06:45:17;5.97;;;1.33;;
38312;SDS011;24114;52.260;6.714;2023-12-28T06:47:44;6.20;;;1.13;;
38312;SDS011;24114;52.260;6.714;2023-12-28T06:50:12;4.78;;;1.08;;
38312;SDS011;24114;52.260;6.714;2023-12-28T06:52:40;7.20;;;1.60;;
38312;SDS011;24114;52.260;6.714;2023-12-28T06:55:08;4.65;;;1.20;;
38312;SDS011;24114;52.260;6.714;2023-12-28T06:57:36;6.50;;;0.98;;
38312;SDS011;24114;52.260;6.714;2023-12-28T07:00:06;5.97;;;1.08;;
38312;SDS011;24114;52.260;6.714;2023-12-28T07:02:34;3.70;;;0.85;;
38312;SDS011;24114;52.260;6.714;2023-12-28T07:05:02;5.15;;;1.10;;
38312;SDS011;24114;52.260;6.714;2023-12-28T07:07:31;7.70;;;1.50;;
38312;SDS011;24114;52.260;6.714;2023-12-28T07:09:58;4.15;;;1.23;;
38312;SDS011;24114;52.260;6.714;2023-12-28T07:12:26;6.07;;;1.37;;
38312;SDS011;24114;52.260;6.714;2023-12-28T07:14:54;5.55;;;1.10;;
38312;SDS011;24114;52.260;6.714;2023-12-28T07:17:23;6.20;;;1.00;;
38312;SDS011;24114;52.260;6.714;2023-12-28T07:19:51;4.83;;;1.10;;
38312;SDS011;24114;52.260;6.714;2023-12-28T07:22:19;4.63;;;0.90;;
38312;SDS011;24114;52.260;6.714;2023-12-28T07:24:47;4.95;;;0.80;;
38312;SDS011;24114;52.260;6.714;2023-12-28T07:27:14;4.50;;;1.08;;
38312;SDS011;24114;52.260;6.714;2023-12-28T07:29:42;4.88;;;0.80;;
38312;SDS011;24114;52.260;6.714;2023-12-28T07:32:10;7.00;;;1.00;;
38312;SDS011;24114;52.260;6.714;2023-12-28T07:34:39;5.80;;;1.38;;
38312;SDS011;24114;52.260;6.714;2023-12-28T07:37:07;5.30;;;1.08;;
38312;SDS011;24114;52.260;6.714;2023-12-28T07:39:35;6.28;;;1.88;;
38312;SDS011;24114;52.260;6.714;2023-12-28T07:42:03;7.10;;;1.27;;
38312;SDS011;24114;52.260;6.714;2023-12-28T07:44:31;5.85;;;1.23;;
38312;SDS011;24114;52.260;6.714;2023-12-28T07:46:59;5.75;;;1.27;;
38312;SDS011;24114;52.260;6.714;2023-12-28T07:49:26;8.38;;;1.60;;
38312;SDS011;24114;52.260;6.714;2023-12-28T07:51:56;7.18;;;1.30;;
38312;SDS011;24114;52.260;6.714;2023-12-28T07:54:24;6.88;;;1.35;;
38312;SDS011;24114;52.260;6.714;2023-12-28T07:56:52;6.93;;;0.88;;
38312;SDS011;24114;52.260;6.714;2023-12-28T07:59:19;7.97;;;1.40;;
38312;SDS011;24114;52.260;6.714;2023-12-28T08:01:47;7.15;;;1.80;;
38312;SDS011;24114;52.260;6.714;2023-12-28T08:04:15;8.10;;;1.58;;
38312;SDS011;24114;52.260;6.714;2023-12-28T08:06:43;6.00;;;1.05;;
38312;SDS011;24114;52.260;6.714;2023-12-28T08:09:12;6.40;;;1.90;;
38312;SDS011;24114;52.260;6.714;2023-12-28T08:11:40;8.93;;;2.77;;
38312;SDS011;24114;52.260;6.714;2023-12-28T08:14:08;6.20;;;1.83;;
38312;SDS011;24114;52.260;6.714;2023-12-28T08:16:36;5.70;;;1.00;;
38312;SDS011;24114;52.260;6.714;2023-12-28T08:19:03;7.47;;;1.42;;
38312;SDS011;24114;52.260;6.714;2023-12-28T08:21:32;6.63;;;1.17;;
38312;SDS011;24114;52.260;6.714;2023-12-28T08:23:59;6.55;;;1.13;;
38312;SDS011;24114;52.260;6.714;2023-12-28T08:26:29;8.30;;;1.40;;
38312;SDS011;24114;52.260;6.714;2023-12-28T08:28:58;9.03;;;1.80;;
38312;SDS011;24114;52.260;6.714;2023-12-28T08:31:26;7.13;;;1.20;;
38312;SDS011;24114;52.260;6.714;2023-12-28T08:33:56;12.80;;;2.22;;
38312;SDS011;24114;52.260;6.714;2023-12-28T08:36:24;9.70;;;2.92;;
38312;SDS011;24114;52.260;6.714;2023-12-28T08:38:51;13.02;;;3.88;;
38312;SDS011;24114;52.260;6.714;2023-12-28T08:41:19;10.53;;;2.93;;
38312;SDS011;24114;52.260;6.714;2023-12-28T08:43:49;11.10;;;2.42;;
38312;SDS011;24114;52.260;6.714;2023-12-28T08:46:16;10.15;;;1.80;;
38312;SDS011;24114;52.260;6.714;2023-12-28T08:48:45;10.07;;;2.45;;
38312;SDS011;24114;52.260;6.714;2023-12-28T08:51:13;8.57;;;1.60;;
38312;SDS011;24114;52.260;6.714;2023-12-28T08:53:41;8.63;;;1.75;;
38312;SDS011;24114;52.260;6.714;2023-12-28T08:56:19;7.97;;;1.50;;
38312;SDS011;24114;52.260;6.714;2023-12-28T08:58:49;9.05;;;1.77;;
38312;SDS011;24114;52.260;6.714;2023-12-28T09:01:18;7.55;;;1.30;;
38312;SDS011;24114;52.260;6.714;2023-12-28T09:03:48;8.98;;;2.08;;
38312;SDS011;24114;52.260;6.714;2023-12-28T09:06:16;10.23;;;3.40;;
38312;SDS011;24114;52.260;6.714;2023-12-28T09:08:45;11.82;;;3.05;;
38312;SDS011;24114;52.260;6.714;2023-12-28T09:13:23;6.67;;;1.40;;
38312;SDS011;24114;52.260;6.714;2023-12-28T09:15:51;9.63;;;2.22;;
38312;SDS011;24114;52.260;6.714;2023-12-28T09:18:19;10.38;;;1.98;;
38312;SDS011;24114;52.260;6.714;2023-12-28T09:20:48;10.10;;;2.05;;
38312;SDS011;24114;52.260;6.714;2023-12-28T09:23:28;8.57;;;1.80;;
38312;SDS011;24114;52.260;6.714;2023-12-28T09:25:55;10.13;;;1.70;;
38312;SDS011;24114;52.260;6.714;2023-12-28T09:28:23;10.70;;;1.90;;
38312;SDS011;24114;52.260;6.714;2023-12-28T09:30:51;11.25;;;1.60;;
38312;SDS011;24114;52.260;6.714;2023-12-28T09:33:19;7.47;;;2.13;;
38312;SDS011;24114;52.260;6.714;2023-12-28T09:35:47;9.60;;;2.25;;
38312;SDS011;24114;52.260;6.714;2023-12-28T09:38:18;10.18;;;2.15;;
38312;SDS011;24114;52.260;6.714;2023-12-28T09:40:47;9.60;;;2.40;;
38312;SDS011;24114;52.260;6.714;2023-12-28T09:43:15;9.87;;;1.73;;
38312;SDS011;24114;52.260;6.714;2023-12-28T09:45:49;9.98;;;1.90;;
38312;SDS011;24114;52.260;6.714;2023-12-28T09:48:17;9.00;;;2.45;;
38312;SDS011;24114;52.260;6.714;2023-12-28T09:50:48;10.55;;;2.03;;
38312;SDS011;24114;52.260;6.714;2023-12-28T09:53:17;11.23;;;2.73;;
38312;SDS011;24114;52.260;6.714;2023-12-28T09:55:44;12.73;;;3.28;;
38312;SDS011;24114;52.260;6.714;2023-12-28T09:58:14;14.60;;;3.80;;
38312;SDS011;24114;52.260;6.714;2023-12-28T10:00:45;13.85;;;2.50;;
38312;SDS011;24114;52.260;6.714;2023-12-28T10:03:14;9.27;;;1.77;;
38312;SDS011;24114;52.260;6.714;2023-12-28T10:05:42;9.90;;;2.22;;
38312;SDS011;24114;52.260;6.714;2023-12-28T10:08:12;10.93;;;1.98;;
38312;SDS011;24114;52.260;6.714;2023-12-28T10:10:40;7.68;;;1.52;;
38312;SDS011;24114;52.260;6.714;2023-12-28T10:13:08;9.40;;;1.52;;
38312;SDS011;24114;52.260;6.714;2023-12-28T10:15:37;8.47;;;1.20;;
38312;SDS011;24114;52.260;6.714;2023-12-28T10:18:05;9.88;;;2.50;;
38312;SDS011;24114;52.260;6.714;2023-12-28T10:20:33;8.60;;;1.27;;
38312;SDS011;24114;52.260;6.714;2023-12-28T10:23:01;7.80;;;1.25;;
38312;SDS011;24114;52.260;6.714;2023-12-28T10:25:31;7.45;;;1.20;;
38312;SDS011;24114;52.260;6.714;2023-12-28T10:28:03;9.35;;;1.23;;
38312;SDS011;24114;52.260;6.714;2023-12-28T10:30:31;10.93;;;1.52;;
38312;SDS011;24114;52.260;6.714;2023-12-28T10:33:01;5.35;;;0.85;;
38312;SDS011;24114;52.260;6.714;2023-12-28T10:35:33;9.63;;;1.70;;
38312;SDS011;24114;52.260;6.714;2023-12-28T10:38:01;8.63;;;1.42;;
38312;SDS011;24114;52.260;6.714;2023-12-28T10:40:30;8.90;;;1.57;;
38312;SDS011;24114;52.260;6.714;2023-12-28T10:42:59;9.43;;;1.88;;
38312;SDS011;24114;52.260;6.714;2023-12-28T10:45:29;23.98;;;12.75;;
38312;SDS011;24114;52.260;6.714;2023-12-28T10:48:04;11.45;;;2.45;;
38312;SDS011;24114;52.260;6.714;2023-12-28T10:50:37;9.93;;;1.65;;
38312;SDS011;24114;52.260;6.714;2023-12-28T10:53:11;9.75;;;2.13;;
38312;SDS011;24114;52.260;6.714;2023-12-28T10:55:51;10.13;;;1.50;;
38312;SDS011;24114;52.260;6.714;2023-12-28T10:58:22;7.80;;;1.70;;
38312;SDS011;24114;52.260;6.714;2023-12-28T11:00:56;10.18;;;1.65;;
38312;SDS011;24114;52.260;6.714;2023-12-28T11:03:30;9.75;;;1.55;;
38312;SDS011;24114;52.260;6.714;2023-12-28T11:06:00;8.23;;;1.58;;
38312;SDS011;24114;52.260;6.714;2023-12-28T11:08:30;11.27;;;1.70;;
38312;SDS011;24114;52.260;6.714;2023-12-28T11:10:59;9.38;;;1.77;;
38312;SDS011;24114;52.260;6.714;2023-12-28T11:13:29;10.20;;;1.55;;
38312;SDS011;24114;52.260;6.714;2023-12-28T11:15:59;9.98;;;1.55;;
38312;SDS011;24114;52.260;6.714;2023-12-28T11:18:29;11.60;;;1.60;;
38312;SDS011;24114;52.260;6.714;2023-12-28T11:20:57;7.55;;;1.15;;
38312;SDS011;24114;52.260;6.714;2023-12-28T11:23:25;8.35;;;1.60;;
38312;SDS011;24114;52.260;6.714;2023-12-28T11:25:53;8.82;;;1.63;;
38312;SDS011;24114;52.260;6.714;2023-12-28T11:28:20;10.07;;;2.37;;
38312;SDS011;24114;52.260;6.714;2023-12-28T11:30:51;11.97;;;1.93;;
38312;SDS011;24114;52.260;6.714;2023-12-28T11:33:19;8.67;;;1.23;;
38312;SDS011;24114;52.260;6.714;2023-12-28T11:35:48;8.32;;;1.33;;
38312;SDS011;24114;52.260;6.714;2023-12-28T11:38:19;7.40;;;1.83;;
38312;SDS011;24114;52.260;6.714;2023-12-28T11:40:47;8.73;;;1.67;;
38312;SDS011;24114;52.260;6.714;2023-12-28T11:43:17;7.43;;;1.38;;
38312;SDS011;24114;52.260;6.714;2023-12-28T11:45:46;7.97;;;1.77;;
38312;SDS011;24114;52.260;6.714;2023-12-28T11:48:23;10.43;;;1.52;;
38312;SDS011;24114;52.260;6.714;2023-12-28T11:50:55;7.47;;;1.67;;
38312;SDS011;24114;52.260;6.714;2023-12-28T11:53:24;10.82;;;2.50;;
38312;SDS011;24114;52.260;6.714;2023-12-28T11:55:59;11.20;;;2.22;;
38312;SDS011;24114;52.260;6.714;2023-12-28T11:58:28;9.30;;;1.57;;
38312;SDS011;24114;52.260;6.714;2023-12-28T12:00:56;10.13;;;1.58;;
38312;SDS011;24114;52.260;6.714;2023-12-28T12:03:24;8.38;;;1.65;;
38312;SDS011;24114;52.260;6.714;2023-12-28T12:05:54;7.05;;;1.00;;
38312;SDS011;24114;52.260;6.714;2023-12-28T12:08:23;8.57;;;1.35;;
38312;SDS011;24114;52.260;6.714;2023-12-28T12:10:59;8.60;;;1.45;;
38312;SDS011;24114;52.260;6.714;2023-12-28T12:13:28;9.10;;;1.52;;
38312;SDS011;24114;52.260;6.714;2023-12-28T12:16:03;9.60;;;1.88;;
38312;SDS011;24114;52.260;6.714;2023-12-28T12:18:33;16.15;;;3.60;;
38312;SDS011;24114;52.260;6.714;2023-12-28T12:21:04;17.33;;;6.82;;
38312;SDS011;24114;52.260;6.714;2023-12-28T12:23:32;27.40;;;11.73;;
38312;SDS011;24114;52.260;6.714;2023-12-28T12:26:01;21.80;;;8.57;;
38312;SDS011;24114;52.260;6.714;2023-12-28T12:28:32;20.33;;;9.55;;
38312;SDS011;24114;52.260;6.714;2023-12-28T12:31:00;18.83;;;8.77;;
38312;SDS011;24114;52.260;6.714;2023-12-28T12:33:29;30.93;;;17.67;;
38312;SDS011;24114;52.260;6.714;2023-12-28T12:35:59;15.45;;;5.85;;
38312;SDS011;24114;52.260;6.714;2023-12-28T12:38:28;11.43;;;3.38;;
38312;SDS011;24114;52.260;6.714;2023-12-28T12:40:57;10.10;;;2.47;;
38312;SDS011;24114;52.260;6.714;2023-12-28T12:43:25;10.65;;;2.33;;
38312;SDS011;24114;52.260;6.714;2023-12-28T12:45:53;9.93;;;2.47;;
38312;SDS011;24114;52.260;6.714;2023-12-28T12:48:21;14.73;;;4.43;;
38312;SDS011;24114;52.260;6.714;2023-12-28T12:50:49;9.45;;;1.55;;
38312;SDS011;24114;52.260;6.714;2023-12-28T12:53:17;9.20;;;2.72;;
38312;SDS011;24114;52.260;6.714;2023-12-28T12:55:46;9.43;;;1.90;;
38312;SDS011;24114;52.260;6.714;2023-12-28T12:58:14;11.25;;;1.80;;
38312;SDS011;24114;52.260;6.714;2023-12-28T13:00:44;9.73;;;2.30;;
38312;SDS011;24114;52.260;6.714;2023-12-28T13:03:13;13.77;;;2.97;;
38312;SDS011;24114;52.260;6.714;2023-12-28T13:05:41;11.67;;;2.33;;
38312;SDS011;24114;52.260;6.714;2023-12-28T13:08:10;10.85;;;2.67;;
38312;SDS011;24114;52.260;6.714;2023-12-28T13:10:38;9.82;;;1.98;;
38312;SDS011;24114;52.260;6.714;2023-12-28T13:13:07;10.93;;;1.45;;
38312;SDS011;24114;52.260;6.714;2023-12-28T13:15:35;10.20;;;2.00;;
38312;SDS011;24114;52.260;6.714;2023-12-28T13:18:03;11.35;;;1.90;;
38312;SDS011;24114;52.260;6.714;2023-12-28T13:20:31;11.98;;;2.17;;
38312;SDS011;24114;52.260;6.714;2023-12-28T13:22:59;10.23;;;2.25;;
38312;SDS011;24114;52.260;6.714;2023-12-28T13:25:31;13.40;;;2.75;;
38312;SDS011;24114;52.260;6.714;2023-12-28T13:27:59;9.50;;;2.58;;
38312;SDS011;24114;52.260;6.714;2023-12-28T13:30:28;17.67;;;8.57;;
38312;SDS011;24114;52.260;6.714;2023-12-28T13:32:56;11.70;;;3.72;;
38312;SDS011;24114;52.260;6.714;2023-12-28T13:35:25;12.55;;;4.15;;
38312;SDS011;24114;52.260;6.714;2023-12-28T13:37:52;19.85;;;8.48;;
38312;SDS011;24114;52.260;6.714;2023-12-28T13:40:20;10.52;;;2.90;;
38312;SDS011;24114;52.260;6.714;2023-12-28T13:42:48;17.17;;;6.53;;
38312;SDS011;24114;52.260;6.714;2023-12-28T13:45:16;20.97;;;11.40;;
38312;SDS011;24114;52.260;6.714;2023-12-28T13:47:45;12.85;;;4.88;;
38312;SDS011;24114;52.260;6.714;2023-12-28T13:50:13;11.85;;;3.53;;
38312;SDS011;24114;52.260;6.714;2023-12-28T13:52:41;11.57;;;2.85;;
38312;SDS011;24114;52.260;6.714;2023-12-28T13:55:09;10.70;;;4.15;;
38312;SDS011;24114;52.260;6.714;2023-12-28T13:57:38;12.95;;;5.50;;
38312;SDS011;24114;52.260;6.714;2023-12-28T14:00:06;15.13;;;5.03;;
38312;SDS011;24114;52.260;6.714;2023-12-28T14:02:36;16.43;;;4.33;;
38312;SDS011;24114;52.260;6.714;2023-12-28T14:05:05;10.35;;;1.77;;
38312;SDS011;24114;52.260;6.714;2023-12-28T14:07:34;15.63;;;7.38;;
38312;SDS011;24114;52.260;6.714;2023-12-28T14:10:02;13.75;;;3.20;;
38312;SDS011;24114;52.260;6.714;2023-12-28T14:12:31;13.20;;;4.13;;
38312;SDS011;24114;52.260;6.714;2023-12-28T14:14:59;10.27;;;2.17;;
38312;SDS011;24114;52.260;6.714;2023-12-28T14:17:27;12.60;;;2.25;;
38312;SDS011;24114;52.260;6.714;2023-12-28T14:19:56;11.60;;;2.08;;
38312;SDS011;24114;52.260;6.714;2023-12-28T14:22:26;10.10;;;2.17;;
38312;SDS011;24114;52.260;6.714;2023-12-28T14:24:54;11.80;;;2.40;;
38312;SDS011;24114;52.260;6.714;2023-12-28T14:27:23;12.70;;;3.15;;
38312;SDS011;24114;52.260;6.714;2023-12-28T14:29:51;12.47;;;2.70;;
38312;SDS011;24114;52.260;6.714;2023-12-28T14:32:23;9.10;;;2.05;;
38312;SDS011;24114;52.260;6.714;2023-12-28T14:34:51;11.68;;;2.22;;
38312;SDS011;24114;52.260;6.714;2023-12-28T14:37:20;11.45;;;2.15;;
38312;SDS011;24114;52.260;6.714;2023-12-28T14:39:49;11.10;;;2.25;;
38312;SDS011;24114;52.260;6.714;2023-12-28T14:42:17;13.20;;;5.18;;
38312;SDS011;24114;52.260;6.714;2023-12-28T14:44:45;11.40;;;3.45;;
38312;SDS011;24114;52.260;6.714;2023-12-28T14:47:14;12.03;;;4.27;;
38312;SDS011;24114;52.260;6.714;2023-12-28T14:49:41;11.73;;;2.58;;
38312;SDS011;24114;52.260;6.714;2023-12-28T14:52:11;10.50;;;1.92;;
38312;SDS011;24114;52.260;6.714;2023-12-28T14:54:39;10.95;;;1.83;;